sensor_id;sensor_type;location;lat;lon;timestamp;P1;durP1;ratioP1;P2;durP2;ratioP2
24233;SDS011;12365;43.554;1.388;2022-08-14T00:01:04;22.38;;;3.40;;
24233;SDS011;12365;43.554;1.388;2022-08-14T00:03:30;21.85;;;3.45;;
24233;SDS011;12365;43.554;1.388;2022-08-14T00:05:57;22.55;;;4.07;;
24233;SDS011;12365;43.554;1.388;2022-08-14T00:08:24;16.98;;;3.53;;
24233;SDS011;12365;43.554;1.388;2022-08-14T00:10:50;17.63;;;3.92;;
24233;SDS011;12365;43.554;1.388;2022-08-14T00:13:17;15.43;;;3.60;;
24233;SDS011;12365;43.554;1.388;2022-08-14T00:15:46;20.45;;;3.47;;
24233;SDS011;12365;43.554;1.388;2022-08-14T00:18:16;20.83;;;4.00;;
24233;SDS011;12365;43.554;1.388;2022-08-14T00:20:43;20.40;;;4.15;;
24233;SDS011;12365;43.554;1.388;2022-08-14T00:23:10;22.63;;;3.80;;
24233;SDS011;12365;43.554;1.388;2022-08-14T00:25:37;21.30;;;3.17;;
24233;SDS011;12365;43.554;1.388;2022-08-14T00:28:02;17.00;;;3.53;;
24233;SDS011;12365;43.554;1.388;2022-08-14T00:30:29;20.73;;;3.58;;
24233;SDS011;12365;43.554;1.388;2022-08-14T00:32:55;20.77;;;3.67;;
24233;SDS011;12365;43.554;1.388;2022-08-14T00:35:20;16.50;;;3.67;;
24233;SDS011;12365;43.554;1.388;2022-08-14T00:37:46;15.25;;;3.95;;
24233;SDS011;12365;43.554;1.388;2022-08-14T00:40:13;20.17;;;4.57;;
24233;SDS011;12365;43.554;1.388;2022-08-14T00:42:41;16.70;;;4.20;;
24233;SDS011;12365;43.554;1.388;2022-08-14T00:45:07;19.08;;;3.70;;
24233;SDS011;12365;43.554;1.388;2022-08-14T00:47:34;16.70;;;4.10;;
24233;SDS011;12365;43.554;1.388;2022-08-14T00:50:00;16.58;;;5.00;;
24233;SDS011;12365;43.554;1.388;2022-08-14T00:52:28;17.52;;;4.40;;
24233;SDS011;12365;43.554;1.388;2022-08-14T00:54:56;23.25;;;5.05;;
24233;SDS011;12365;43.554;1.388;2022-08-14T00:57:25;10.82;;;4.70;;
24233;SDS011;12365;43.554;1.388;2022-08-14T00:59:53;12.25;;;4.75;;
24233;SDS011;12365;43.554;1.388;2022-08-14T01:02:21;17.70;;;5.45;;
24233;SDS011;12365;43.554;1.388;2022-08-14T01:04:49;13.63;;;5.35;;
24233;SDS011;12365;43.554;1.388;2022-08-14T01:07:16;13.52;;;5.60;;
24233;SDS011;12365;43.554;1.388;2022-08-14T01:09:49;13.50;;;5.32;;
24233;SDS011;12365;43.554;1.388;2022-08-14T01:12:16;12.63;;;5.47;;
24233;SDS011;12365;43.554;1.388;2022-08-14T01:14:43;11.82;;;5.38;;
24233;SDS011;12365;43.554;1.388;2022-08-14T01:17:09;14.70;;;5.85;;
24233;SDS011;12365;43.554;1.388;2022-08-14T01:19:36;12.00;;;5.85;;
24233;SDS011;12365;43.554;1.388;2022-08-14T01:22:20;18.10;;;6.38;;
24233;SDS011;12365;43.554;1.388;2022-08-14T01:24:46;12.98;;;6.35;;
24233;SDS011;12365;43.554;1.388;2022-08-14T01:27:19;12.15;;;6.63;;
24233;SDS011;12365;43.554;1.388;2022-08-14T01:29:46;13.02;;;6.53;;
24233;SDS011;12365;43.554;1.388;2022-08-14T01:32:14;11.40;;;6.50;;
24233;SDS011;12365;43.554;1.388;2022-08-14T01:34:42;11.57;;;6.30;;
24233;SDS011;12365;43.554;1.388;2022-08-14T01:37:08;11.15;;;6.10;;
24233;SDS011;12365;43.554;1.388;2022-08-14T01:39:34;13.35;;;6.18;;
24233;SDS011;12365;43.554;1.388;2022-08-14T01:42:00;12.10;;;5.60;;
24233;SDS011;12365;43.554;1.388;2022-08-14T01:44:27;12.02;;;6.45;;
24233;SDS011;12365;43.554;1.388;2022-08-14T01:46:56;10.75;;;5.78;;
24233;SDS011;12365;43.554;1.388;2022-08-14T01:49:23;15.82;;;6.15;;
24233;SDS011;12365;43.554;1.388;2022-08-14T01:51:50;11.18;;;6.05;;
24233;SDS011;12365;43.554;1.388;2022-08-14T01:54:20;12.70;;;6.28;;
24233;SDS011;12365;43.554;1.388;2022-08-14T01:56:51;14.30;;;6.00;;
24233;SDS011;12365;43.554;1.388;2022-08-14T01:59:21;10.95;;;5.55;;
24233;SDS011;12365;43.554;1.388;2022-08-14T02:01:53;13.27;;;5.80;;
24233;SDS011;12365;43.554;1.388;2022-08-14T02:04:21;10.98;;;5.90;;
24233;SDS011;12365;43.554;1.388;2022-08-14T02:06:49;10.65;;;6.00;;
24233;SDS011;12365;43.554;1.388;2022-08-14T02:09:15;11.63;;;5.75;;
24233;SDS011;12365;43.554;1.388;2022-08-14T02:11:42;13.10;;;5.78;;
24233;SDS011;12365;43.554;1.388;2022-08-14T02:14:09;10.98;;;5.43;;
24233;SDS011;12365;43.554;1.388;2022-08-14T02:16:37;12.70;;;5.75;;
24233;SDS011;12365;43.554;1.388;2022-08-14T02:19:06;11.45;;;5.90;;
24233;SDS011;12365;43.554;1.388;2022-08-14T02:21:34;11.05;;;5.70;;
24233;SDS011;12365;43.554;1.388;2022-08-14T02:24:01;13.52;;;5.78;;
24233;SDS011;12365;43.554;1.388;2022-08-14T02:26:29;11.52;;;5.38;;
24233;SDS011;12365;43.554;1.388;2022-08-14T02:28:59;12.45;;;5.50;;
24233;SDS011;12365;43.554;1.388;2022-08-14T02:31:37;17.05;;;5.88;;
24233;SDS011;12365;43.554;1.388;2022-08-14T02:34:06;12.30;;;5.60;;
24233;SDS011;12365;43.554;1.388;2022-08-14T02:36:35;10.80;;;5.07;;
24233;SDS011;12365;43.554;1.388;2022-08-14T02:39:01;10.95;;;5.25;;
24233;SDS011;12365;43.554;1.388;2022-08-14T02:41:27;13.23;;;5.45;;
24233;SDS011;12365;43.554;1.388;2022-08-14T02:43:53;9.52;;;5.15;;
24233;SDS011;12365;43.554;1.388;2022-08-14T02:46:18;11.10;;;5.40;;
24233;SDS011;12365;43.554;1.388;2022-08-14T02:48:43;9.60;;;5.20;;
24233;SDS011;12365;43.554;1.388;2022-08-14T02:51:10;9.40;;;5.10;;
24233;SDS011;12365;43.554;1.388;2022-08-14T02:53:39;10.18;;;5.43;;
24233;SDS011;12365;43.554;1.388;2022-08-14T02:56:08;8.05;;;4.88;;
24233;SDS011;12365;43.554;1.388;2022-08-14T02:58:36;11.07;;;5.22;;
24233;SDS011;12365;43.554;1.388;2022-08-14T03:01:06;9.95;;;4.95;;
24233;SDS011;12365;43.554;1.388;2022-08-14T03:03:33;13.48;;;5.25;;
24233;SDS011;12365;43.554;1.388;2022-08-14T03:06:00;10.35;;;5.45;;
24233;SDS011;12365;43.554;1.388;2022-08-14T03:08:28;10.75;;;5.40;;
24233;SDS011;12365;43.554;1.388;2022-08-14T03:10:57;12.32;;;5.05;;
24233;SDS011;12365;43.554;1.388;2022-08-14T03:13:30;10.50;;;4.90;;
24233;SDS011;12365;43.554;1.388;2022-08-14T03:16:07;12.27;;;5.35;;
24233;SDS011;12365;43.554;1.388;2022-08-14T03:18:38;9.90;;;5.05;;
24233;SDS011;12365;43.554;1.388;2022-08-14T03:21:06;9.63;;;4.70;;
24233;SDS011;12365;43.554;1.388;2022-08-14T03:23:33;8.80;;;4.85;;
24233;SDS011;12365;43.554;1.388;2022-08-14T03:26:00;12.05;;;5.28;;
24233;SDS011;12365;43.554;1.388;2022-08-14T03:28:27;10.48;;;4.70;;
24233;SDS011;12365;43.554;1.388;2022-08-14T03:30:54;10.32;;;4.72;;
24233;SDS011;12365;43.554;1.388;2022-08-14T03:33:21;11.35;;;4.85;;
24233;SDS011;12365;43.554;1.388;2022-08-14T03:35:47;10.45;;;4.78;;
24233;SDS011;12365;43.554;1.388;2022-08-14T03:38:15;8.93;;;5.05;;
24233;SDS011;12365;43.554;1.388;2022-08-14T03:40:42;10.93;;;4.80;;
24233;SDS011;12365;43.554;1.388;2022-08-14T03:43:08;12.30;;;5.00;;
24233;SDS011;12365;43.554;1.388;2022-08-14T03:45:35;11.00;;;5.00;;
24233;SDS011;12365;43.554;1.388;2022-08-14T03:48:03;9.85;;;5.10;;
24233;SDS011;12365;43.554;1.388;2022-08-14T03:50:39;10.30;;;5.15;;
24233;SDS011;12365;43.554;1.388;2022-08-14T03:53:05;8.90;;;5.20;;
24233;SDS011;12365;43.554;1.388;2022-08-14T03:55:30;12.35;;;5.18;;
24233;SDS011;12365;43.554;1.388;2022-08-14T03:57:56;8.55;;;4.75;;
24233;SDS011;12365;43.554;1.388;2022-08-14T04:00:22;10.05;;;5.15;;
24233;SDS011;12365;43.554;1.388;2022-08-14T04:02:47;12.73;;;5.60;;
24233;SDS011;12365;43.554;1.388;2022-08-14T04:05:13;10.77;;;5.07;;
24233;SDS011;12365;43.554;1.388;2022-08-14T04:07:39;9.77;;;5.50;;
24233;SDS011;12365;43.554;1.388;2022-08-14T04:10:05;9.82;;;5.18;;
24233;SDS011;12365;43.554;1.388;2022-08-14T04:12:31;9.07;;;5.50;;
24233;SDS011;12365;43.554;1.388;2022-08-14T04:14:58;8.55;;;4.85;;
24233;SDS011;12365;43.554;1.388;2022-08-14T04:17:23;10.07;;;5.32;;
24233;SDS011;12365;43.554;1.388;2022-08-14T04:19:50;10.95;;;5.60;;
24233;SDS011;12365;43.554;1.388;2022-08-14T04:22:15;9.50;;;4.97;;
24233;SDS011;12365;43.554;1.388;2022-08-14T04:24:41;9.15;;;5.03;;
24233;SDS011;12365;43.554;1.388;2022-08-14T04:27:10;10.85;;;4.90;;
24233;SDS011;12365;43.554;1.388;2022-08-14T04:29:38;9.30;;;5.13;;
24233;SDS011;12365;43.554;1.388;2022-08-14T04:32:06;9.35;;;5.13;;
24233;SDS011;12365;43.554;1.388;2022-08-14T04:34:34;13.85;;;5.68;;
24233;SDS011;12365;43.554;1.388;2022-08-14T04:37:05;8.73;;;5.15;;
24233;SDS011;12365;43.554;1.388;2022-08-14T04:39:51;11.30;;;5.43;;
24233;SDS011;12365;43.554;1.388;2022-08-14T04:42:37;11.27;;;5.50;;
24233;SDS011;12365;43.554;1.388;2022-08-14T04:45:21;7.93;;;5.22;;
24233;SDS011;12365;43.554;1.388;2022-08-14T04:47:48;15.40;;;5.60;;
24233;SDS011;12365;43.554;1.388;2022-08-14T04:50:34;12.15;;;5.78;;
24233;SDS011;12365;43.554;1.388;2022-08-14T04:53:02;10.02;;;5.78;;
24233;SDS011;12365;43.554;1.388;2022-08-14T04:55:28;10.68;;;5.50;;
24233;SDS011;12365;43.554;1.388;2022-08-14T04:57:54;8.88;;;5.38;;
24233;SDS011;12365;43.554;1.388;2022-08-14T05:00:20;11.65;;;6.18;;
24233;SDS011;12365;43.554;1.388;2022-08-14T05:02:46;11.18;;;5.82;;
24233;SDS011;12365;43.554;1.388;2022-08-14T05:05:12;11.10;;;5.75;;
24233;SDS011;12365;43.554;1.388;2022-08-14T05:07:38;11.63;;;6.03;;
24233;SDS011;12365;43.554;1.388;2022-08-14T05:10:04;11.18;;;5.70;;
24233;SDS011;12365;43.554;1.388;2022-08-14T05:12:30;13.43;;;6.20;;
24233;SDS011;12365;43.554;1.388;2022-08-14T05:14:55;10.65;;;5.97;;
24233;SDS011;12365;43.554;1.388;2022-08-14T05:17:21;10.50;;;6.00;;
24233;SDS011;12365;43.554;1.388;2022-08-14T05:19:50;13.70;;;6.28;;
24233;SDS011;12365;43.554;1.388;2022-08-14T05:22:16;10.30;;;6.07;;
24233;SDS011;12365;43.554;1.388;2022-08-14T05:24:41;14.35;;;6.50;;
24233;SDS011;12365;43.554;1.388;2022-08-14T05:27:07;13.05;;;6.28;;
24233;SDS011;12365;43.554;1.388;2022-08-14T05:29:33;11.13;;;6.10;;
24233;SDS011;12365;43.554;1.388;2022-08-14T05:32:00;13.20;;;6.85;;
24233;SDS011;12365;43.554;1.388;2022-08-14T05:34:31;12.32;;;5.97;;
24233;SDS011;12365;43.554;1.388;2022-08-14T05:36:58;11.52;;;6.68;;
24233;SDS011;12365;43.554;1.388;2022-08-14T05:39:24;10.73;;;6.22;;
24233;SDS011;12365;43.554;1.388;2022-08-14T05:41:49;13.88;;;6.32;;
24233;SDS011;12365;43.554;1.388;2022-08-14T05:44:15;9.90;;;6.32;;
24233;SDS011;12365;43.554;1.388;2022-08-14T05:46:41;10.80;;;6.18;;
24233;SDS011;12365;43.554;1.388;2022-08-14T05:49:06;12.95;;;6.45;;
24233;SDS011;12365;43.554;1.388;2022-08-14T05:51:32;10.10;;;6.03;;
24233;SDS011;12365;43.554;1.388;2022-08-14T05:53:57;12.63;;;6.25;;
24233;SDS011;12365;43.554;1.388;2022-08-14T05:56:23;11.63;;;6.68;;
24233;SDS011;12365;43.554;1.388;2022-08-14T05:58:49;11.05;;;6.28;;
24233;SDS011;12365;43.554;1.388;2022-08-14T06:01:15;12.35;;;6.72;;
24233;SDS011;12365;43.554;1.388;2022-08-14T06:03:41;11.95;;;7.07;;
24233;SDS011;12365;43.554;1.388;2022-08-14T06:06:06;13.70;;;7.13;;
24233;SDS011;12365;43.554;1.388;2022-08-14T06:08:32;13.35;;;6.75;;
24233;SDS011;12365;43.554;1.388;2022-08-14T06:10:58;16.88;;;7.15;;
24233;SDS011;12365;43.554;1.388;2022-08-14T06:13:33;12.80;;;6.80;;
24233;SDS011;12365;43.554;1.388;2022-08-14T06:16:01;14.23;;;6.82;;
24233;SDS011;12365;43.554;1.388;2022-08-14T06:18:26;12.13;;;6.60;;
24233;SDS011;12365;43.554;1.388;2022-08-14T06:20:52;11.45;;;6.68;;
24233;SDS011;12365;43.554;1.388;2022-08-14T06:23:18;11.98;;;6.82;;
24233;SDS011;12365;43.554;1.388;2022-08-14T06:25:44;12.40;;;6.47;;
24233;SDS011;12365;43.554;1.388;2022-08-14T06:28:21;10.30;;;5.88;;
24233;SDS011;12365;43.554;1.388;2022-08-14T06:30:47;11.68;;;6.20;;
24233;SDS011;12365;43.554;1.388;2022-08-14T06:33:14;12.15;;;6.05;;
24233;SDS011;12365;43.554;1.388;2022-08-14T06:35:40;13.60;;;5.88;;
24233;SDS011;12365;43.554;1.388;2022-08-14T06:38:06;15.77;;;6.22;;
24233;SDS011;12365;43.554;1.388;2022-08-14T06:40:36;9.25;;;5.80;;
24233;SDS011;12365;43.554;1.388;2022-08-14T06:43:03;9.80;;;6.10;;
24233;SDS011;12365;43.554;1.388;2022-08-14T06:45:32;13.18;;;6.10;;
24233;SDS011;12365;43.554;1.388;2022-08-14T06:48:01;10.10;;;5.78;;
24233;SDS011;12365;43.554;1.388;2022-08-14T06:50:28;7.97;;;5.32;;
24233;SDS011;12365;43.554;1.388;2022-08-14T06:52:55;12.25;;;5.63;;
24233;SDS011;12365;43.554;1.388;2022-08-14T06:55:22;9.30;;;5.30;;
24233;SDS011;12365;43.554;1.388;2022-08-14T06:57:49;10.98;;;5.47;;
24233;SDS011;12365;43.554;1.388;2022-08-14T07:00:24;8.32;;;5.32;;
24233;SDS011;12365;43.554;1.388;2022-08-14T07:02:51;8.77;;;5.40;;
24233;SDS011;12365;43.554;1.388;2022-08-14T07:05:36;8.20;;;4.97;;
24233;SDS011;12365;43.554;1.388;2022-08-14T07:10:38;6.60;;;4.78;;
24233;SDS011;12365;43.554;1.388;2022-08-14T07:13:04;7.28;;;4.70;;
24233;SDS011;12365;43.554;1.388;2022-08-14T07:15:30;8.88;;;4.85;;
24233;SDS011;12365;43.554;1.388;2022-08-14T07:17:57;7.80;;;5.00;;
24233;SDS011;12365;43.554;1.388;2022-08-14T07:20:22;7.90;;;4.72;;
24233;SDS011;12365;43.554;1.388;2022-08-14T07:22:48;8.23;;;5.18;;
24233;SDS011;12365;43.554;1.388;2022-08-14T07:25:14;7.30;;;4.82;;
24233;SDS011;12365;43.554;1.388;2022-08-14T07:27:40;6.88;;;4.88;;
24233;SDS011;12365;43.554;1.388;2022-08-14T07:30:06;9.85;;;4.97;;
24233;SDS011;12365;43.554;1.388;2022-08-14T07:32:32;8.63;;;4.68;;
24233;SDS011;12365;43.554;1.388;2022-08-14T07:34:58;8.25;;;4.93;;
24233;SDS011;12365;43.554;1.388;2022-08-14T07:37:23;9.23;;;4.43;;
24233;SDS011;12365;43.554;1.388;2022-08-14T07:39:49;8.25;;;4.70;;
24233;SDS011;12365;43.554;1.388;2022-08-14T07:42:15;9.68;;;4.47;;
24233;SDS011;12365;43.554;1.388;2022-08-14T07:44:41;7.60;;;4.68;;
24233;SDS011;12365;43.554;1.388;2022-08-14T07:47:06;8.10;;;4.60;;
24233;SDS011;12365;43.554;1.388;2022-08-14T07:49:32;7.75;;;4.65;;
24233;SDS011;12365;43.554;1.388;2022-08-14T07:51:58;7.13;;;4.32;;
24233;SDS011;12365;43.554;1.388;2022-08-14T07:54:25;8.63;;;4.28;;
24233;SDS011;12365;43.554;1.388;2022-08-14T07:56:50;6.70;;;4.13;;
24233;SDS011;12365;43.554;1.388;2022-08-14T07:59:16;6.40;;;4.10;;
24233;SDS011;12365;43.554;1.388;2022-08-14T08:01:42;7.25;;;4.22;;
24233;SDS011;12365;43.554;1.388;2022-08-14T08:04:08;7.78;;;4.03;;
24233;SDS011;12365;43.554;1.388;2022-08-14T08:06:35;9.27;;;4.00;;
24233;SDS011;12365;43.554;1.388;2022-08-14T08:09:02;7.22;;;3.90;;
24233;SDS011;12365;43.554;1.388;2022-08-14T08:11:32;7.70;;;4.05;;
24233;SDS011;12365;43.554;1.388;2022-08-14T08:13:59;5.97;;;4.03;;
24233;SDS011;12365;43.554;1.388;2022-08-14T08:16:30;4.65;;;3.85;;
24233;SDS011;12365;43.554;1.388;2022-08-14T08:18:56;6.35;;;4.10;;
24233;SDS011;12365;43.554;1.388;2022-08-14T08:21:21;7.03;;;4.00;;
24233;SDS011;12365;43.554;1.388;2022-08-14T08:23:46;8.10;;;4.03;;
24233;SDS011;12365;43.554;1.388;2022-08-14T08:26:12;8.48;;;4.10;;
24233;SDS011;12365;43.554;1.388;2022-08-14T08:28:38;6.88;;;3.80;;
24233;SDS011;12365;43.554;1.388;2022-08-14T08:31:04;7.68;;;3.85;;
24233;SDS011;12365;43.554;1.388;2022-08-14T08:33:31;9.15;;;3.95;;
24233;SDS011;12365;43.554;1.388;2022-08-14T08:36:00;5.82;;;3.65;;
24233;SDS011;12365;43.554;1.388;2022-08-14T08:38:30;6.57;;;3.77;;
24233;SDS011;12365;43.554;1.388;2022-08-14T08:40:56;7.38;;;3.72;;
24233;SDS011;12365;43.554;1.388;2022-08-14T08:43:24;6.03;;;3.60;;
24233;SDS011;12365;43.554;1.388;2022-08-14T08:48:19;8.88;;;3.63;;
24233;SDS011;12365;43.554;1.388;2022-08-14T08:50:46;6.38;;;3.80;;
24233;SDS011;12365;43.554;1.388;2022-08-14T08:53:11;6.60;;;3.70;;
24233;SDS011;12365;43.554;1.388;2022-08-14T08:55:41;6.10;;;4.03;;
24233;SDS011;12365;43.554;1.388;2022-08-14T08:58:09;8.13;;;3.83;;
24233;SDS011;12365;43.554;1.388;2022-08-14T09:00:37;7.70;;;3.58;;
24233;SDS011;12365;43.554;1.388;2022-08-14T09:03:09;8.02;;;4.13;;
24233;SDS011;12365;43.554;1.388;2022-08-14T09:05:47;7.90;;;3.90;;
24233;SDS011;12365;43.554;1.388;2022-08-14T09:08:21;7.63;;;3.80;;
24233;SDS011;12365;43.554;1.388;2022-08-14T09:10:49;9.50;;;4.10;;
24233;SDS011;12365;43.554;1.388;2022-08-14T09:13:17;6.30;;;3.67;;
24233;SDS011;12365;43.554;1.388;2022-08-14T09:15:44;7.47;;;3.70;;
24233;SDS011;12365;43.554;1.388;2022-08-14T09:18:13;8.77;;;3.90;;
24233;SDS011;12365;43.554;1.388;2022-08-14T09:20:40;9.10;;;3.88;;
24233;SDS011;12365;43.554;1.388;2022-08-14T09:23:08;7.28;;;3.60;;
24233;SDS011;12365;43.554;1.388;2022-08-14T09:25:35;8.10;;;3.70;;
24233;SDS011;12365;43.554;1.388;2022-08-14T09:28:01;7.82;;;3.40;;
24233;SDS011;12365;43.554;1.388;2022-08-14T09:30:28;5.68;;;3.30;;
24233;SDS011;12365;43.554;1.388;2022-08-14T09:46:56;7.67;;;3.40;;
24233;SDS011;12365;43.554;1.388;2022-08-14T09:49:28;5.88;;;3.15;;
24233;SDS011;12365;43.554;1.388;2022-08-14T09:52:15;7.63;;;3.40;;
24233;SDS011;12365;43.554;1.388;2022-08-14T09:54:42;7.07;;;3.03;;
24233;SDS011;12365;43.554;1.388;2022-08-14T09:57:25;7.05;;;3.25;;
24233;SDS011;12365;43.554;1.388;2022-08-14T09:59:52;6.60;;;3.20;;
24233;SDS011;12365;43.554;1.388;2022-08-14T10:02:28;5.88;;;3.20;;
24233;SDS011;12365;43.554;1.388;2022-08-14T10:04:59;4.78;;;3.10;;
24233;SDS011;12365;43.554;1.388;2022-08-14T10:07:29;4.93;;;3.20;;
24233;SDS011;12365;43.554;1.388;2022-08-14T10:09:56;6.70;;;3.05;;
24233;SDS011;12365;43.554;1.388;2022-08-14T10:12:21;5.97;;;3.38;;
24233;SDS011;12365;43.554;1.388;2022-08-14T10:14:47;4.35;;;2.90;;
24233;SDS011;12365;43.554;1.388;2022-08-14T10:17:20;8.48;;;3.35;;
24233;SDS011;12365;43.554;1.388;2022-08-14T10:19:51;11.80;;;3.45;;
24233;SDS011;12365;43.554;1.388;2022-08-14T10:22:22;6.25;;;3.00;;
24233;SDS011;12365;43.554;1.388;2022-08-14T10:24:52;6.35;;;2.80;;
24233;SDS011;12365;43.554;1.388;2022-08-14T10:27:22;5.80;;;2.65;;
24233;SDS011;12365;43.554;1.388;2022-08-14T10:29:58;7.43;;;2.97;;
24233;SDS011;12365;43.554;1.388;2022-08-14T10:32:24;6.30;;;2.80;;
24233;SDS011;12365;43.554;1.388;2022-08-14T10:34:51;7.50;;;3.00;;
24233;SDS011;12365;43.554;1.388;2022-08-14T10:37:41;5.97;;;2.67;;
24233;SDS011;12365;43.554;1.388;2022-08-14T10:40:13;5.85;;;2.88;;
24233;SDS011;12365;43.554;1.388;2022-08-14T10:42:59;4.82;;;2.92;;
24233;SDS011;12365;43.554;1.388;2022-08-14T10:45:29;5.75;;;3.03;;
24233;SDS011;12365;43.554;1.388;2022-08-14T10:47:59;8.52;;;3.20;;
24233;SDS011;12365;43.554;1.388;2022-08-14T10:50:29;7.18;;;2.80;;
24233;SDS011;12365;43.554;1.388;2022-08-14T10:52:58;5.63;;;2.90;;
24233;SDS011;12365;43.554;1.388;2022-08-14T10:55:29;6.75;;;3.10;;
24233;SDS011;12365;43.554;1.388;2022-08-14T10:57:57;6.18;;;2.60;;
24233;SDS011;12365;43.554;1.388;2022-08-14T11:00:23;6.60;;;2.80;;
24233;SDS011;12365;43.554;1.388;2022-08-14T11:05:50;7.70;;;3.03;;
24233;SDS011;12365;43.554;1.388;2022-08-14T11:08:13;7.82;;;3.15;;
24233;SDS011;12365;43.554;1.388;2022-08-14T11:10:42;6.38;;;2.90;;
24233;SDS011;12365;43.554;1.388;2022-08-14T11:13:17;6.53;;;2.75;;
24233;SDS011;12365;43.554;1.388;2022-08-14T11:15:45;7.05;;;3.03;;
24233;SDS011;12365;43.554;1.388;2022-08-14T11:18:13;7.93;;;3.22;;
24233;SDS011;12365;43.554;1.388;2022-08-14T11:20:39;5.57;;;2.92;;
24233;SDS011;12365;43.554;1.388;2022-08-14T11:23:12;7.95;;;2.90;;
24233;SDS011;12365;43.554;1.388;2022-08-14T11:25:39;7.55;;;2.92;;
24233;SDS011;12365;43.554;1.388;2022-08-14T11:28:10;6.65;;;2.80;;
24233;SDS011;12365;43.554;1.388;2022-08-14T11:30:38;5.38;;;2.78;;
24233;SDS011;12365;43.554;1.388;2022-08-14T11:33:06;6.35;;;3.13;;
24233;SDS011;12365;43.554;1.388;2022-08-14T11:35:32;9.68;;;2.78;;
24233;SDS011;12365;43.554;1.388;2022-08-14T11:38:01;8.20;;;3.22;;
24233;SDS011;12365;43.554;1.388;2022-08-14T11:40:37;7.13;;;2.70;;
24233;SDS011;12365;43.554;1.388;2022-08-14T11:43:04;5.38;;;2.60;;
24233;SDS011;12365;43.554;1.388;2022-08-14T11:45:32;5.80;;;2.70;;
24233;SDS011;12365;43.554;1.388;2022-08-14T11:48:00;7.57;;;2.63;;
24233;SDS011;12365;43.554;1.388;2022-08-14T11:50:27;8.88;;;3.10;;
24233;SDS011;12365;43.554;1.388;2022-08-14T11:52:55;5.68;;;2.50;;
24233;SDS011;12365;43.554;1.388;2022-08-14T11:55:21;8.05;;;2.65;;
24233;SDS011;12365;43.554;1.388;2022-08-14T11:57:58;5.40;;;2.53;;
24233;SDS011;12365;43.554;1.388;2022-08-14T12:00:25;8.55;;;2.60;;
24233;SDS011;12365;43.554;1.388;2022-08-14T12:02:52;8.05;;;2.45;;
24233;SDS011;12365;43.554;1.388;2022-08-14T12:05:32;5.47;;;2.30;;
24233;SDS011;12365;43.554;1.388;2022-08-14T12:08:00;5.82;;;2.60;;
24233;SDS011;12365;43.554;1.388;2022-08-14T12:10:26;7.75;;;2.83;;
24233;SDS011;12365;43.554;1.388;2022-08-14T12:12:54;7.00;;;2.80;;
24233;SDS011;12365;43.554;1.388;2022-08-14T12:15:55;11.20;;;2.67;;
24233;SDS011;12365;43.554;1.388;2022-08-14T12:18:31;5.93;;;2.47;;
24233;SDS011;12365;43.554;1.388;2022-08-14T12:21:11;6.75;;;2.50;;
24233;SDS011;12365;43.554;1.388;2022-08-14T12:24:01;7.45;;;2.88;;
24233;SDS011;12365;43.554;1.388;2022-08-14T12:26:31;7.85;;;2.67;;
24233;SDS011;12365;43.554;1.388;2022-08-14T12:29:05;8.70;;;2.70;;
24233;SDS011;12365;43.554;1.388;2022-08-14T12:31:32;5.93;;;3.00;;
24233;SDS011;12365;43.554;1.388;2022-08-14T12:33:59;5.82;;;2.45;;
24233;SDS011;12365;43.554;1.388;2022-08-14T12:36:27;6.45;;;2.65;;
24233;SDS011;12365;43.554;1.388;2022-08-14T12:38:57;6.88;;;2.58;;
24233;SDS011;12365;43.554;1.388;2022-08-14T12:41:25;5.47;;;2.50;;
24233;SDS011;12365;43.554;1.388;2022-08-14T12:46:24;7.18;;;2.63;;
24233;SDS011;12365;43.554;1.388;2022-08-14T12:49:01;7.40;;;2.75;;
24233;SDS011;12365;43.554;1.388;2022-08-14T12:51:33;8.75;;;2.67;;
24233;SDS011;12365;43.554;1.388;2022-08-14T12:53:59;6.50;;;2.47;;
24233;SDS011;12365;43.554;1.388;2022-08-14T12:56:35;5.35;;;2.47;;
24233;SDS011;12365;43.554;1.388;2022-08-14T12:59:01;8.38;;;2.70;;
24233;SDS011;12365;43.554;1.388;2022-08-14T13:01:28;7.70;;;2.70;;
24233;SDS011;12365;43.554;1.388;2022-08-14T13:04:02;8.10;;;2.40;;
24233;SDS011;12365;43.554;1.388;2022-08-14T13:06:31;6.53;;;2.40;;
24233;SDS011;12365;43.554;1.388;2022-08-14T13:08:57;5.22;;;2.38;;
24233;SDS011;12365;43.554;1.388;2022-08-14T13:11:23;7.30;;;2.65;;
24233;SDS011;12365;43.554;1.388;2022-08-14T13:13:55;6.55;;;2.10;;
24233;SDS011;12365;43.554;1.388;2022-08-14T13:16:23;6.07;;;2.28;;
24233;SDS011;12365;43.554;1.388;2022-08-14T13:18:52;5.95;;;2.28;;
24233;SDS011;12365;43.554;1.388;2022-08-14T13:21:24;5.45;;;2.22;;
24233;SDS011;12365;43.554;1.388;2022-08-14T13:23:50;7.38;;;2.30;;
24233;SDS011;12365;43.554;1.388;2022-08-14T13:26:16;6.40;;;2.10;;
24233;SDS011;12365;43.554;1.388;2022-08-14T13:28:43;5.05;;;2.22;;
24233;SDS011;12365;43.554;1.388;2022-08-14T13:31:11;7.55;;;2.10;;
24233;SDS011;12365;43.554;1.388;2022-08-14T13:33:38;4.90;;;1.90;;
24233;SDS011;12365;43.554;1.388;2022-08-14T13:36:04;7.43;;;2.20;;
24233;SDS011;12365;43.554;1.388;2022-08-14T13:38:30;3.45;;;2.08;;
24233;SDS011;12365;43.554;1.388;2022-08-14T13:40:56;3.00;;;1.90;;
24233;SDS011;12365;43.554;1.388;2022-08-14T13:43:22;6.28;;;2.42;;
24233;SDS011;12365;43.554;1.388;2022-08-14T13:45:51;5.57;;;2.30;;
24233;SDS011;12365;43.554;1.388;2022-08-14T13:48:19;5.82;;;2.05;;
24233;SDS011;12365;43.554;1.388;2022-08-14T13:50:44;6.78;;;2.20;;
24233;SDS011;12365;43.554;1.388;2022-08-14T13:53:12;6.47;;;2.47;;
24233;SDS011;12365;43.554;1.388;2022-08-14T13:55:40;5.43;;;2.30;;
24233;SDS011;12365;43.554;1.388;2022-08-14T13:58:08;6.57;;;2.30;;
24233;SDS011;12365;43.554;1.388;2022-08-14T14:00:35;5.85;;;2.15;;
24233;SDS011;12365;43.554;1.388;2022-08-14T14:03:02;4.32;;;2.10;;
24233;SDS011;12365;43.554;1.388;2022-08-14T14:05:32;5.13;;;1.98;;
24233;SDS011;12365;43.554;1.388;2022-08-14T14:08:02;5.37;;;2.27;;
24233;SDS011;12365;43.554;1.388;2022-08-14T14:10:29;4.57;;;2.17;;
24233;SDS011;12365;43.554;1.388;2022-08-14T14:12:59;5.00;;;2.13;;
24233;SDS011;12365;43.554;1.388;2022-08-14T14:15:25;9.88;;;2.53;;
24233;SDS011;12365;43.554;1.388;2022-08-14T14:17:51;5.82;;;2.20;;
24233;SDS011;12365;43.554;1.388;2022-08-14T14:20:17;5.90;;;2.10;;
24233;SDS011;12365;43.554;1.388;2022-08-14T14:22:46;4.57;;;2.13;;
24233;SDS011;12365;43.554;1.388;2022-08-14T14:25:14;5.55;;;2.13;;
24233;SDS011;12365;43.554;1.388;2022-08-14T14:27:42;6.20;;;2.60;;
24233;SDS011;12365;43.554;1.388;2022-08-14T14:30:10;7.35;;;2.45;;
24233;SDS011;12365;43.554;1.388;2022-08-14T14:32:38;5.60;;;2.22;;
24233;SDS011;12365;43.554;1.388;2022-08-14T14:35:05;6.50;;;2.15;;
24233;SDS011;12365;43.554;1.388;2022-08-14T14:37:35;7.50;;;2.45;;
24233;SDS011;12365;43.554;1.388;2022-08-14T14:40:02;5.45;;;2.42;;
24233;SDS011;12365;43.554;1.388;2022-08-14T14:42:30;5.00;;;2.25;;
24233;SDS011;12365;43.554;1.388;2022-08-14T14:45:05;7.00;;;2.50;;
24233;SDS011;12365;43.554;1.388;2022-08-14T14:47:39;4.07;;;2.13;;
24233;SDS011;12365;43.554;1.388;2022-08-14T14:50:06;5.35;;;2.35;;
24233;SDS011;12365;43.554;1.388;2022-08-14T14:52:35;5.97;;;2.38;;
24233;SDS011;12365;43.554;1.388;2022-08-14T14:55:01;6.03;;;2.00;;
24233;SDS011;12365;43.554;1.388;2022-08-14T14:57:27;3.67;;;1.92;;
24233;SDS011;12365;43.554;1.388;2022-08-14T14:59:53;5.07;;;2.20;;
24233;SDS011;12365;43.554;1.388;2022-08-14T15:02:33;5.00;;;2.05;;
24233;SDS011;12365;43.554;1.388;2022-08-14T15:05:00;6.55;;;2.13;;
24233;SDS011;12365;43.554;1.388;2022-08-14T15:07:27;5.60;;;2.00;;
24233;SDS011;12365;43.554;1.388;2022-08-14T15:09:53;7.45;;;2.20;;
24233;SDS011;12365;43.554;1.388;2022-08-14T15:12:18;6.10;;;2.10;;
24233;SDS011;12365;43.554;1.388;2022-08-14T15:14:44;4.05;;;2.00;;